Time;durP1;ratioP1;P1;durP2;ratioP2;P2;SDS_P1;SDS_P2;PMS_P1;PMS_P2;Temp;Humidity;BMP_temperature;BMP_pressure;BME280_temperature;BME280_humidity;BME280_pressure;Samples;Min_cycle;Max_cycle;Signal;HPM_P1;HPM_P2
2022/06/27 00:01:56;;;;;;;3.85;2.22;;;;;;;24.33;48.08;99821.13;4456277;32;33863;-91
2022/06/27 00:04:25;;;;;;;4.25;2.22;;;;;;;24.41;47.72;99823.28;4456303;32;34669;-91
2022/06/27 00:06:52;;;;;;;4.10;2.10;;;;;;;24.39;47.86;99819.94;4455270;32;33242;-90
2022/06/27 00:09:20;;;;;;;3.78;2.17;;;;;;;24.34;48.02;99824.78;4454684;32;33837;-91
2022/06/27 00:11:48;;;;;;;4.57;2.30;;;;;;;24.31;48.02;99826.22;4442537;32;32284;-93
2022/06/27 00:14:18;;;;;;;5.03;2.60;;;;;;;24.30;47.99;99818.91;4455259;32;34412;-92
2022/06/27 00:16:48;;;;;;;4.10;2.40;;;;;;;24.42;47.65;99827.78;4455379;32;34205;-91
2022/06/27 00:19:20;;;;;;;5.97;2.70;;;;;;;24.20;48.51;99822.62;4455369;32;31703;-92
2022/06/27 00:21:47;;;;;;;5.28;2.60;;;;;;;24.18;48.72;99829.66;4455306;32;32220;-94
2022/06/27 00:24:16;;;;;;;3.83;2.15;;;;;;;24.01;49.38;99832.94;4455392;32;34619;-91
2022/06/27 00:26:43;;;;;;;5.18;2.17;;;;;;;24.14;49.08;99825.78;4455062;32;34581;-91
2022/06/27 00:29:12;;;;;;;3.97;2.45;;;;;;;24.12;49.02;99822.44;4455207;32;32790;-91
2022/06/27 00:31:40;;;;;;;4.32;2.42;;;;;;;24.06;49.25;99829.22;4455478;32;34698;-91
2022/06/27 00:34:11;;;;;;;4.45;2.50;;;;;;;23.96;49.48;99832.97;4454845;32;34085;-91
2022/06/27 00:36:39;;;;;;;5.75;2.37;;;;;;;23.88;49.60;99828.84;4455086;32;32413;-92
2022/06/27 00:39:09;;;;;;;4.10;2.22;;;;;;;23.84;49.64;99829.72;4442408;32;32396;-92
2022/06/27 00:41:42;;;;;;;4.57;2.62;;;;;;;24.07;48.95;99830.91;4455210;32;32127;-91
2022/06/27 00:44:09;;;;;;;8.48;2.80;;;;;;;23.98;49.34;99817.53;4442396;32;32635;-91
2022/06/27 00:46:37;;;;;;;8.68;2.80;;;;;;;23.90;49.45;99825.75;4442187;32;33376;-91
2022/06/27 00:49:05;;;;;;;4.72;2.42;;;;;;;23.95;49.29;99831.31;4454860;32;34034;-91
2022/06/27 00:51:36;;;;;;;8.88;2.53;;;;;;;23.88;49.38;99823.22;4441988;32;32299;-92
2022/06/27 00:54:06;;;;;;;4.93;2.40;;;;;;;23.84;49.62;99824.94;4441973;32;33538;-91
2022/06/27 00:56:35;;;;;;;8.63;2.67;;;;;;;23.82;49.67;99829.19;4456104;32;32465;-91
2022/06/27 00:59:02;;;;;;;4.90;2.70;;;;;;;23.80;49.95;99831.44;4456912;32;33793;-91
2022/06/27 01:01:31;;;;;;;5.57;2.42;;;;;;;23.80;49.93;99832.28;4456859;32;33126;-90
2022/06/27 01:04:01;;;;;;;5.22;2.75;;;;;;;23.78;49.94;99831.72;4444423;32;33652;-91
2022/06/27 01:06:31;;;;;;;5.03;2.60;;;;;;;23.81;49.83;99839.56;4456717;32;32990;-90
2022/06/27 01:08:59;;;;;;;5.00;2.42;;;;;;;23.74;49.92;99844.66;4455630;32;31415;-91
2022/06/27 01:11:28;;;;;;;4.95;2.58;;;;;;;23.66;50.15;99842.47;4457064;32;33007;-91
2022/06/27 01:13:56;;;;;;;5.57;2.45;;;;;;;23.62;50.30;99839.41;4444125;32;33311;-91
2022/06/27 01:16:24;;;;;;;4.82;2.62;;;;;;;23.60;50.39;99838.88;4444241;32;32408;-91
2022/06/27 01:18:52;;;;;;;4.20;2.33;;;;;;;23.68;50.25;99840.22;4457099;32;32838;-91
2022/06/27 01:21:22;;;;;;;6.25;2.72;;;;;;;23.69;50.17;99841.03;4444149;32;32361;-92
2022/06/27 01:23:51;;;;;;;4.35;2.45;;;;;;;23.67;50.07;99841.34;4444069;32;32556;-90
2022/06/27 01:26:22;;;;;;;4.35;2.50;;;;;;;23.65;50.14;99830.41;4457171;32;34323;-92
2022/06/27 01:28:52;;;;;;;4.15;2.55;;;;;;;23.52;50.57;99831.03;4442961;32;32868;-90
2022/06/27 01:31:20;;;;;;;5.97;3.30;;;;;;;23.52;50.54;99833.00;4456419;32;32530;-92
2022/06/27 01:33:51;;;;;;;5.43;2.75;;;;;;;23.55;50.43;99826.84;4444134;32;32814;-92
2022/06/27 01:39:07;;;;;;;7.05;2.50;;;;;;;23.39;51.04;99833.69;4458772;32;31314;-91
2022/06/27 01:41:34;;;;;;;8.10;2.62;;;;;;;23.42;51.01;99824.66;4456494;32;34411;-91
2022/06/27 01:44:06;;;;;;;5.20;2.70;;;;;;;23.40;51.06;99826.94;4456614;32;33648;-91
2022/06/27 01:47:00;;;;;;;4.47;2.50;;;;;;;23.43;50.98;99821.56;4457098;32;33947;-92
2022/06/27 01:49:32;;;;;;;4.12;2.53;;;;;;;23.46;50.85;99831.38;4443568;32;32513;-91
2022/06/27 01:52:04;;;;;;;8.63;3.00;;;;;;;23.33;51.23;99825.31;4444073;32;33096;-91
2022/06/27 01:54:33;;;;;;;10.48;3.12;;;;;;;23.23;51.62;99833.78;4456642;32;35165;-91
2022/06/27 01:57:02;;;;;;;5.70;2.95;;;;;;;23.28;51.45;99830.09;4443978;32;32047;-92
2022/06/27 01:59:30;;;;;;;6.22;2.95;;;;;;;23.33;51.32;99828.09;4456678;32;31434;-92
2022/06/27 02:01:59;;;;;;;4.87;2.90;;;;;;;23.29;51.44;99834.59;4456879;32;33677;-92
2022/06/27 02:04:31;;;;;;;7.55;3.20;;;;;;;23.20;51.76;99833.50;4443951;32;32900;-92
2022/06/27 02:07:02;;;;;;;5.68;2.65;;;;;;;23.16;51.82;99827.66;4443842;32;33447;-92
2022/06/27 02:09:31;;;;;;;5.37;2.72;;;;;;;23.16;51.79;99838.00;4443937;32;32525;-91
2022/06/27 02:12:21;;;;;;;5.60;3.00;;;;;;;23.15;51.87;99844.72;4444252;32;33075;-91
2022/06/27 02:14:51;;;;;;;5.55;3.10;;;;;;;23.20;51.78;99844.72;4445923;32;32832;-92
2022/06/27 02:17:23;;;;;;;4.85;3.20;;;;;;;23.15;52.02;99842.78;4456664;32;33838;-92
2022/06/27 02:19:51;;;;;;;6.43;2.78;;;;;;;23.10;52.30;99848.41;4443973;32;31463;-92
2022/06/27 02:22:20;;;;;;;8.15;3.47;;;;;;;23.14;52.06;99843.06;4460718;32;33721;-92
2022/06/27 02:24:50;;;;;;;5.03;3.00;;;;;;;23.14;52.07;99851.47;4461145;32;34642;-92
2022/06/27 02:27:22;;;;;;;5.82;2.95;;;;;;;23.09;52.24;99846.72;4448015;32;33212;-92
2022/06/27 02:29:49;;;;;;;9.52;3.00;;;;;;;23.10;52.26;99850.34;4460979;32;33519;-91
2022/06/27 02:32:17;;;;;;;8.30;2.80;;;;;;;23.04;52.45;99843.94;4460042;32;33691;-92
2022/06/27 02:34:49;;;;;;;5.70;2.92;;;;;;;23.10;52.28;99844.75;4445094;32;34258;-91
2022/06/27 02:37:17;;;;;;;6.95;3.33;;;;;;;22.92;52.89;99847.06;4444375;32;34149;-90
2022/06/27 02:39:46;;;;;;;5.60;3.17;;;;;;;22.87;53.01;99852.69;4457218;32;33021;-88
2022/06/27 02:42:17;;;;;;;7.50;3.17;;;;;;;23.06;52.37;99850.09;4444139;32;33140;-92
2022/06/27 02:44:48;;;;;;;5.53;3.30;;;;;;;22.97;52.52;99847.06;4456819;32;34935;-92
2022/06/27 02:47:20;;;;;;;6.05;3.03;;;;;;;22.99;52.58;99853.22;4444130;32;32448;-92
2022/06/27 02:49:49;;;;;;;9.30;3.83;;;;;;;23.01;52.54;99850.13;4443824;32;33227;-91
2022/06/27 02:52:35;;;;;;;9.48;3.50;;;;;;;23.05;52.47;99862.41;4444004;32;32460;-91
2022/06/27 02:55:12;;;;;;;9.05;3.58;;;;;;;23.08;52.50;99859.03;4443865;32;32814;-91
2022/06/27 02:58:03;;;;;;;6.82;3.62;;;;;;;23.05;52.86;99856.81;4456401;32;34931;-91
2022/06/27 03:00:34;;;;;;;7.20;3.62;;;;;;;23.20;52.42;99862.34;4460591;32;32268;-92
2022/06/27 03:03:04;;;;;;;7.72;3.80;;;;;;;23.18;52.70;99870.19;4456529;32;33759;-92
2022/06/27 03:05:32;;;;;;;7.75;3.75;;;;;;;23.34;52.27;99865.34;4456483;32;33500;-92
2022/06/27 03:08:00;;;;;;;6.15;3.45;;;;;;;23.27;52.52;99874.06;4443373;32;33350;-91
2022/06/27 03:10:31;;;;;;;6.97;3.47;;;;;;;23.26;52.74;99877.16;4443522;32;31831;-80
2022/06/27 03:12:58;;;;;;;7.22;3.75;;;;;;;23.41;52.25;99882.66;4456161;32;33758;-80
2022/06/27 03:15:26;;;;;;;6.05;3.30;;;;;;;23.46;52.22;99885.44;4443507;32;33068;-88
2022/06/27 03:17:54;;;;;;;5.40;3.20;;;;;;;23.40;52.48;99883.78;4456179;32;34025;-87
2022/06/27 03:20:25;;;;;;;5.62;3.17;;;;;;;23.55;51.99;99885.69;4443742;32;31504;-88
2022/06/27 03:22:56;;;;;;;6.32;3.65;;;;;;;23.53;52.14;99885.97;4443437;32;32221;-87
2022/06/27 03:25:25;;;;;;;6.50;3.42;;;;;;;23.61;51.88;99885.38;4456267;32;34347;-87
2022/06/27 03:27:58;;;;;;;7.55;3.50;;;;;;;23.64;51.90;99895.16;4455999;32;34062;-87
2022/06/27 03:30:27;;;;;;;6.65;3.50;;;;;;;23.64;51.97;99896.00;4456397;32;33211;-88
2022/06/27 03:32:55;;;;;;;7.45;3.60;;;;;;;23.74;51.80;99891.47;4455920;32;32067;-82
2022/06/27 03:35:23;;;;;;;7.75;3.40;;;;;;;23.74;51.80;99900.69;4442997;32;33048;-82
2022/06/27 03:37:55;;;;;;;7.62;3.50;;;;;;;23.92;51.38;99893.56;4456205;32;33557;-82
2022/06/27 03:40:23;;;;;;;5.28;3.15;;;;;;;23.92;51.38;99902.81;4443356;32;31987;-81
2022/06/27 03:42:55;;;;;;;7.47;4.03;;;;;;;23.64;52.16;99890.41;4468928;32;32975;-82
2022/06/27 03:45:23;;;;;;;6.93;3.28;;;;;;;23.55;52.52;99894.94;4456130;32;34328;-82
2022/06/27 03:47:55;;;;;;;9.00;3.55;;;;;;;23.93;51.51;99893.28;4456045;32;34152;-83
2022/06/27 03:50:28;;;;;;;7.78;3.50;;;;;;;23.75;52.14;99899.56;4455958;32;31776;-81
2022/06/27 03:52:57;;;;;;;7.87;3.37;;;;;;;23.75;52.03;99896.78;4455824;32;33869;-81
2022/06/27 03:55:25;;;;;;;5.82;3.50;;;;;;;23.87;51.86;99891.63;4442729;32;34066;-81
2022/06/27 03:57:56;;;;;;;5.37;3.17;;;;;;;23.94;51.58;99903.38;4468444;32;33373;-82
2022/06/27 04:00:27;;;;;;;8.00;3.35;;;;;;;23.75;52.12;99902.37;4455840;32;33291;-82
2022/06/27 04:02:55;;;;;;;6.40;3.55;;;;;;;23.96;51.70;99897.47;4443123;32;33087;-82
2022/06/27 04:05:26;;;;;;;6.93;3.55;;;;;;;23.81;52.22;99904.00;4455730;32;33873;-81
2022/06/27 04:07:55;;;;;;;7.75;3.67;;;;;;;23.78;52.45;99906.56;4455269;32;32507;-82
2022/06/27 04:10:23;;;;;;;11.65;4.82;;;;;;;23.99;51.86;99910.91;4455635;32;34098;-82
2022/06/27 04:12:51;;;;;;;7.75;3.50;;;;;;;23.88;52.02;99912.09;4455451;32;33119;-82
2022/06/27 04:15:21;;;;;;;5.87;3.37;;;;;;;23.95;51.97;99912.63;4455384;32;32679;-81
2022/06/27 04:17:53;;;;;;;6.55;3.20;;;;;;;24.00;51.93;99906.12;4443443;32;33270;-82
2022/06/27 04:20:25;;;;;;;6.30;3.33;;;;;;;24.01;52.09;99910.59;4443217;32;32471;-82
2022/06/27 04:22:57;;;;;;;6.25;3.50;;;;;;;23.92;52.13;99925.25;4455730;32;33143;-81
2022/06/27 04:25:33;;;;;;;6.57;3.20;;;;;;;24.08;51.79;99922.31;4468429;32;34087;-81
2022/06/27 04:28:06;;;;;;;6.15;3.50;;;;;;;24.29;51.48;99923.84;4456067;32;34551;-82
2022/06/27 04:30:34;;;;;;;6.85;3.72;;;;;;;24.18;51.75;99925.87;4455471;32;33227;-82
2022/06/27 04:33:05;;;;;;;7.87;3.53;;;;;;;24.36;51.18;99929.12;4444462;32;32059;-81
2022/06/27 04:35:33;;;;;;;6.85;3.08;;;;;;;24.30;51.57;99928.31;4457070;32;33454;-82
2022/06/27 04:38:01;;;;;;;6.72;3.35;;;;;;;24.48;51.04;99926.75;4470311;32;33860;-83
2022/06/27 04:40:29;;;;;;;8.02;3.15;;;;;;;24.54;50.64;99931.19;4444486;32;31700;-81
2022/06/27 04:42:57;;;;;;;7.05;3.47;;;;;;;24.55;50.84;99932.87;4457226;32;33171;-82
2022/06/27 04:45:28;;;;;;;7.05;3.50;;;;;;;24.60;50.68;99927.22;4457337;32;34435;-82
2022/06/27 04:47:57;;;;;;;5.18;3.25;;;;;;;24.45;51.24;99928.19;4457749;32;33894;-81
2022/06/27 04:50:25;;;;;;;6.25;2.78;;;;;;;24.32;51.44;99930.84;4457109;32;34047;-82
2022/06/27 04:52:54;;;;;;;6.37;3.30;;;;;;;24.54;50.99;99926.41;4444458;32;33618;-82
2022/06/27 04:55:22;;;;;;;5.97;3.20;;;;;;;24.75;50.33;99920.56;4469880;32;34029;-81
2022/06/27 04:57:50;;;;;;;8.95;3.60;;;;;;;24.94;50.15;99935.53;4469973;32;34076;-81
2022/06/27 05:00:19;;;;;;;7.45;3.37;;;;;;;24.60;50.70;99930.00;4444365;32;31660;-81
2022/06/27 05:02:57;;;;;;;9.48;3.55;;;;;;;24.67;50.76;99935.28;4458364;32;33298;-82
2022/06/27 05:05:26;;;;;;;9.43;3.70;;;;;;;24.80;50.46;99935.41;4457270;32;34504;-83
2022/06/27 05:07:57;;;;;;;6.95;3.15;;;;;;;24.96;50.02;99938.91;4457087;32;32472;-81
2022/06/27 05:10:28;;;;;;;7.55;3.20;;;;;;;25.06;49.91;99936.00;4444393;32;32324;-82
2022/06/27 05:12:59;;;;;;;7.57;3.80;;;;;;;25.00;50.05;99937.19;4457390;32;34406;-82
2022/06/27 05:15:27;;;;;;;6.80;3.20;;;;;;;25.23;49.64;99935.50;4469760;32;34682;-82
2022/06/27 05:17:55;;;;;;;5.93;3.42;;;;;;;25.07;49.91;99940.47;4457197;32;32551;-82
2022/06/27 05:20:27;;;;;;;6.20;3.65;;;;;;;25.15;49.33;99941.78;4456851;32;31637;-88
2022/06/27 05:22:57;;;;;;;7.43;3.62;;;;;;;25.06;49.81;99937.97;4457781;32;33786;-88
2022/06/27 05:25:25;;;;;;;8.07;3.58;;;;;;;24.99;49.88;99938.31;4444534;32;33879;-87
2022/06/27 05:27:56;;;;;;;6.82;3.50;;;;;;;25.20;49.51;99934.13;4469645;32;33945;-85
2022/06/27 05:30:23;;;;;;;6.37;3.25;;;;;;;25.11;49.73;99935.94;4457340;32;33347;-84
2022/06/27 05:32:51;;;;;;;5.95;3.40;;;;;;;25.48;49.02;99926.72;4456628;32;32306;-84
2022/06/27 05:35:20;;;;;;;7.32;3.40;;;;;;;25.61;49.03;99930.75;4442175;32;33024;-84
2022/06/27 05:37:49;;;;;;;11.52;3.47;;;;;;;25.72;48.57;99934.31;4456921;32;34888;-82
2022/06/27 05:40:19;;;;;;;8.40;3.60;;;;;;;25.86;48.52;99936.06;4456630;32;32709;-84
2022/06/27 05:42:49;;;;;;;8.35;3.22;;;;;;;25.95;47.62;99929.75;4443923;32;33200;-82
2022/06/27 05:45:17;;;;;;;8.77;4.15;;;;;;;25.89;47.71;99929.00;4469689;32;34584;-84
2022/06/27 05:47:47;;;;;;;4.57;2.90;;;;;;;25.59;48.84;99947.09;4444161;32;32953;-83
2022/06/27 05:50:16;;;;;;;10.25;3.62;;;;;;;25.84;49.01;99937.50;4443961;32;31244;-82
2022/06/27 05:52:45;;;;;;;6.47;3.17;;;;;;;25.89;48.98;99929.81;4443998;32;32873;-82
2022/06/27 05:55:13;;;;;;;7.03;3.35;;;;;;;25.87;48.81;99932.09;4443910;32;34773;-82
2022/06/27 05:57:42;;;;;;;9.05;3.25;;;;;;;26.02;47.69;99945.06;4456962;32;33257;-82
2022/06/27 06:00:11;;;;;;;10.60;3.22;;;;;;;26.03;47.88;99938.31;4469454;32;33208;-81
2022/06/27 06:02:39;;;;;;;9.90;3.30;;;;;;;26.12;47.69;99944.91;4456622;32;32316;-78
2022/06/27 06:05:11;;;;;;;6.50;3.42;;;;;;;26.29;47.27;99937.91;4456765;32;33943;-80
2022/06/27 06:07:43;;;;;;;9.95;3.97;;;;;;;26.29;47.18;99943.53;4469730;32;33947;-80
2022/06/27 06:10:11;;;;;;;7.50;3.50;;;;;;;26.26;47.53;99953.41;4457238;32;33521;-80
2022/06/27 06:12:38;;;;;;;6.40;3.28;;;;;;;26.44;47.37;99951.75;4456500;32;32697;-80
2022/06/27 06:15:09;;;;;;;5.60;3.22;;;;;;;26.50;47.41;99954.16;4456511;32;35038;-80
2022/06/27 06:17:37;;;;;;;9.40;3.72;;;;;;;26.36;46.54;99944.00;4456516;32;34108;-80
2022/06/27 06:20:07;;;;;;;6.18;3.62;;;;;;;26.40;46.90;99953.50;4456593;32;33178;-80
2022/06/27 06:22:34;;;;;;;12.40;4.00;;;;;;;26.66;46.64;99948.25;4456108;32;32224;-80
2022/06/27 06:25:03;;;;;;;6.45;3.58;;;;;;;26.59;46.23;99954.31;4456647;32;33942;-80
2022/06/27 06:27:31;;;;;;;6.25;3.70;;;;;;;26.76;46.31;99960.16;4456482;32;34284;-80
2022/06/27 06:30:06;;;;;;;6.75;3.50;;;;;;;26.64;46.76;99962.66;4444253;32;32135;-80
2022/06/27 06:32:35;;;;;;;7.62;3.35;;;;;;;26.94;46.16;99966.88;4456914;32;32307;-80
2022/06/27 06:35:05;;;;;;;7.22;3.35;;;;;;;26.76;46.42;99965.78;4443675;32;34057;-80
2022/06/27 06:37:33;;;;;;;6.72;3.20;;;;;;;27.04;45.17;99966.72;4470317;32;33810;-80
2022/06/27 06:40:02;;;;;;;5.90;3.72;;;;;;;26.88;45.68;99966.12;4456497;32;31963;-82
2022/06/27 06:42:34;;;;;;;5.57;3.60;;;;;;;27.02;45.47;99968.16;4443525;32;33254;-80
2022/06/27 06:45:04;;;;;;;7.25;3.30;;;;;;;27.04;46.24;99958.25;4456841;32;32968;-80
2022/06/27 06:47:34;;;;;;;8.90;3.70;;;;;;;27.32;44.95;99966.69;4456355;32;33913;-80
2022/06/27 06:50:05;;;;;;;5.50;3.72;;;;;;;27.18;44.95;99963.91;4471585;32;33444;-80
2022/06/27 06:52:34;;;;;;;7.40;3.60;;;;;;;27.05;45.40;99961.91;4461364;32;34228;-80
2022/06/27 06:55:01;;;;;;;6.55;3.67;;;;;;;27.24;45.46;99959.84;4460249;32;32971;-80
2022/06/27 06:57:32;;;;;;;8.48;3.75;;;;;;;27.28;45.29;99965.69;4461090;32;33590;-80
2022/06/27 07:00:00;;;;;;;7.15;3.85;;;;;;;27.51;45.20;99962.63;4473392;32;34810;-80
2022/06/27 07:02:29;;;;;;;7.05;3.80;;;;;;;27.81;44.19;99966.78;4456974;32;32191;-80
2022/06/27 07:04:58;;;;;;;6.68;3.25;;;;;;;27.82;44.01;99964.81;4482770;32;33595;-80
2022/06/27 07:07:26;;;;;;;8.85;3.65;;;;;;;27.74;44.74;99969.22;4456828;32;33064;-81
2022/06/27 07:09:54;;;;;;;7.18;3.30;;;;;;;27.47;44.46;99974.84;4456534;32;33223;-79
2022/06/27 07:12:22;;;;;;;7.80;3.70;;;;;;;27.78;43.84;99963.78;4456293;32;33508;-80
2022/06/27 07:14:50;;;;;;;5.37;3.42;;;;;;;27.84;44.15;99968.97;4456171;32;34510;-75
2022/06/27 07:17:18;;;;;;;8.93;3.70;;;;;;;27.99;43.79;99964.13;4469981;32;33741;-75
2022/06/27 07:19:47;;;;;;;8.60;3.28;;;;;;;28.07;43.48;99963.34;4470062;32;33206;-76
2022/06/27 07:22:15;;;;;;;7.03;3.90;;;;;;;28.14;43.29;99969.41;4469951;32;34107;-75
2022/06/27 07:24:43;;;;;;;9.55;3.80;;;;;;;28.15;43.84;99960.63;4469810;32;34193;-75
2022/06/27 07:27:11;;;;;;;6.53;3.90;;;;;;;28.25;43.03;99964.38;4469104;32;33950;-76
2022/06/27 07:29:39;;;;;;;6.12;3.72;;;;;;;28.24;43.49;99962.72;4468449;32;33047;-76
2022/06/27 07:32:08;;;;;;;8.50;3.50;;;;;;;28.26;43.88;99968.88;4469814;32;33864;-76
2022/06/27 07:34:37;;;;;;;7.80;3.50;;;;;;;28.38;42.86;99974.78;4468683;32;34322;-76
2022/06/27 07:37:04;;;;;;;7.40;4.15;;;;;;;28.36;43.73;99977.91;4468862;32;33871;-77
2022/06/27 07:39:32;;;;;;;5.80;3.28;;;;;;;28.41;43.34;99968.50;4455842;32;33365;-77
2022/06/27 07:42:01;;;;;;;9.05;3.72;;;;;;;28.41;43.59;99971.31;4468685;32;33260;-77
2022/06/27 07:44:34;;;;;;;7.05;3.10;;;;;;;28.51;42.88;99971.91;4455987;32;34185;-77
2022/06/27 07:47:03;;;;;;;12.07;3.65;;;;;;;28.66;43.08;99983.94;4455488;32;32479;-77
2022/06/27 07:49:32;;;;;;;6.00;3.72;;;;;;;28.80;42.21;99977.06;4469392;32;33285;-77
2022/06/27 07:52:00;;;;;;;8.30;3.80;;;;;;;28.81;42.78;99975.06;4468438;32;33900;-78
2022/06/27 07:54:28;;;;;;;6.57;3.40;;;;;;;28.98;42.31;99980.84;4455611;32;33805;-78
2022/06/27 07:56:58;;;;;;;6.22;3.95;;;;;;;29.07;42.22;99980.91;4468418;32;34035;-78
2022/06/27 07:59:32;;;;;;;8.55;3.50;;;;;;;29.12;41.77;99994.88;4468299;32;33483;-78
2022/06/27 08:02:00;;;;;;;5.35;3.37;;;;;;;29.11;42.37;99982.75;4474282;32;34548;-78
2022/06/27 08:04:28;;;;;;;6.68;3.37;;;;;;;29.31;41.04;99986.13;4455675;32;35597;-78
2022/06/27 08:06:56;;;;;;;7.55;3.08;;;;;;;29.26;40.59;99981.44;4457396;32;32462;-78
2022/06/27 08:09:24;;;;;;;10.02;3.37;;;;;;;29.41;40.58;99986.72;4444699;32;31734;-78
2022/06/27 08:11:52;;;;;;;9.68;4.15;;;;;;;29.43;40.25;99989.22;4470262;32;33944;-78
2022/06/27 08:14:22;;;;;;;7.82;3.17;;;;;;;29.62;39.52;99984.13;4457380;32;34945;-81
2022/06/27 08:16:51;;;;;;;6.70;3.42;;;;;;;29.66;40.02;99985.13;4463730;32;34003;-81
2022/06/27 08:19:23;;;;;;;6.22;3.47;;;;;;;29.65;38.58;99980.63;4462299;32;34039;-81
2022/06/27 08:21:51;;;;;;;6.80;3.20;;;;;;;29.82;38.81;99985.50;4460212;32;34499;-81
2022/06/27 08:24:18;;;;;;;5.78;3.22;;;;;;;29.92;38.53;99987.16;4444378;32;32939;-81
2022/06/27 08:26:46;;;;;;;8.20;3.60;;;;;;;29.97;39.08;99992.66;4457429;32;34722;-78
2022/06/27 08:29:17;;;;;;;5.55;2.97;;;;;;;30.15;38.40;99991.56;4457364;32;33115;-80
2022/06/27 08:31:46;;;;;;;5.22;3.40;;;;;;;30.29;37.64;99995.06;4470152;32;34524;-80
2022/06/27 08:34:22;;;;;;;7.35;3.30;;;;;;;30.44;37.00;99994.56;4457275;32;34572;-80
2022/06/27 08:36:51;;;;;;;5.60;3.00;;;;;;;30.45;37.34;99995.38;4471927;32;34907;-80
2022/06/27 08:39:19;;;;;;;7.22;3.25;;;;;;;30.59;36.84;100000.88;4459851;32;31811;-81
2022/06/27 08:41:47;;;;;;;12.57;3.65;;;;;;;30.75;37.01;99996.38;4468404;32;34026;-82
2022/06/27 08:44:18;;;;;;;7.65;3.42;;;;;;;30.77;37.00;99994.88;4485680;32;35328;-77
2022/06/27 08:46:51;;;;;;;8.48;3.50;;;;;;;30.72;37.06;99988.53;4487216;32;33944;-80
2022/06/27 08:49:20;;;;;;;5.87;2.65;;;;;;;30.98;36.62;99989.31;4485464;32;33266;-80
2022/06/27 08:51:48;;;;;;;8.35;2.90;;;;;;;31.17;35.30;99988.97;4472957;32;33799;-82
2022/06/27 08:54:15;;;;;;;6.03;3.20;;;;;;;31.08;35.81;99988.13;4465325;32;34390;-83
2022/06/27 08:56:43;;;;;;;5.68;2.92;;;;;;;31.25;35.82;99982.41;4457270;32;34083;-82
2022/06/27 08:59:11;;;;;;;5.12;2.65;;;;;;;31.26;35.46;99980.38;4472513;32;33385;-82
2022/06/27 09:02:06;;;;;;;6.72;3.22;;;;;;;31.00;35.52;99983.31;4461353;32;32282;-80
2022/06/27 09:05:15;;;;;;;8.73;3.40;;;;;;;31.11;34.93;99979.78;4460578;32;33721;-82
2022/06/27 09:08:06;;;;;;;7.37;3.20;;;;;;;31.29;35.11;99974.88;4472586;32;34083;-82
2022/06/27 09:11:04;;;;;;;7.95;3.15;;;;;;;31.51;35.43;99972.94;4472636;32;32380;-81
2022/06/27 09:13:55;;;;;;;6.40;3.12;;;;;;;31.57;34.55;99972.41;4485442;32;34524;-84
2022/06/27 09:16:52;;;;;;;6.03;3.07;;;;;;;31.81;34.49;99966.12;4485141;32;35680;-81
2022/06/27 09:19:56;;;;;;;6.32;2.87;;;;;;;32.00;33.71;99965.63;4485490;32;34209;-81
2022/06/27 09:22:44;;;;;;;7.90;2.80;;;;;;;32.16;33.39;99968.69;4472416;32;34064;-81
2022/06/27 09:25:30;;;;;;;12.88;4.22;;;;;;;32.44;33.13;99963.31;4460627;32;32355;-82
2022/06/27 09:28:18;;;;;;;8.85;3.17;;;;;;;32.57;33.24;99967.81;4485349;32;35138;-82
2022/06/27 09:31:11;;;;;;;16.30;4.68;;;;;;;32.68;32.68;99961.34;4473782;32;34221;-82
2022/06/27 09:34:14;;;;;;;16.27;4.50;;;;;;;32.69;32.61;99956.50;4460969;32;31914;-82
2022/06/27 09:37:11;;;;;;;33.35;4.95;;;;;;;32.88;31.96;99959.69;4472208;32;33277;-82
2022/06/27 09:39:56;;;;;;;74.60;8.00;;;;;;;33.23;31.21;99950.72;4475260;32;34344;-81
2022/06/27 09:42:47;;;;;;;107.30;9.93;;;;;;;33.39;32.51;99960.25;4482295;32;34069;-82
2022/06/27 09:45:56;;;;;;;16.20;3.60;;;;;;;33.56;31.57;99960.00;4470985;32;32892;-82
2022/06/27 09:48:56;;;;;;;152.40;14.32;;;;;;;33.74;31.27;99946.34;4468989;32;33641;-82
2022/06/27 09:52:14;;;;;;;58.35;7.07;;;;;;;33.92;28.99;99946.94;4458761;32;32724;-82
2022/06/27 09:55:20;;;;;;;12.43;3.17;;;;;;;34.13;28.70;99950.44;4470721;32;32275;-82
2022/06/27 09:58:09;;;;;;;7.85;2.70;;;;;;;34.32;29.28;99942.09;4456878;32;31709;-79
2022/06/27 10:00:58;;;;;;;5.47;2.80;;;;;;;34.37;29.36;99925.94;4469177;32;34485;-79
2022/06/27 10:03:49;;;;;;;15.93;3.35;;;;;;;34.46;29.19;99943.69;4475545;32;34612;-79
2022/06/27 10:06:38;;;;;;;21.33;4.00;;;;;;;34.51;28.64;99940.56;4473764;32;34012;-78
2022/06/27 10:09:32;;;;;;;15.32;4.07;;;;;;;34.71;28.18;99925.28;4460277;32;31619;-78
2022/06/27 10:12:28;;;;;;;6.57;2.65;;;;;;;34.95;27.79;99930.03;4484024;32;33734;-78
2022/06/27 10:15:43;;;;;;;7.75;3.25;;;;;;;35.15;27.97;99928.09;4482696;32;32953;-78
2022/06/27 10:18:31;;;;;;;8.07;3.00;;;;;;;35.02;27.67;99915.13;4484917;32;33708;-78
2022/06/27 10:21:35;;;;;;;9.13;2.95;;;;;;;35.10;27.37;99920.62;4484858;32;31838;-78
2022/06/27 10:24:51;;;;;;;9.32;2.70;;;;;;;35.20;26.77;99907.84;4472780;32;32389;-78
2022/06/27 10:27:45;;;;;;;9.90;3.00;;;;;;;35.48;26.98;99920.00;4485492;32;34368;-78
2022/06/27 10:31:05;;;;;;;6.95;3.10;;;;;;;35.51;27.34;99922.13;4472268;32;33216;-78
2022/06/27 10:34:13;;;;;;;6.22;2.58;;;;;;;35.71;26.35;99907.91;4485206;32;33218;-78
2022/06/27 10:37:44;;;;;;;16.08;3.58;;;;;;;35.69;26.51;99902.56;4460205;32;32175;-78
2022/06/27 10:41:23;;;;;;;5.22;2.42;;;;;;;35.95;26.63;99910.50;4486195;32;33485;-78
2022/06/27 10:44:40;;;;;;;9.15;2.85;;;;;;;35.75;25.38;99900.25;4484766;32;32580;-78
2022/06/27 10:47:43;;;;;;;6.60;2.40;;;;;;;36.11;25.29;99896.97;4459048;32;31556;-78
2022/06/27 10:50:42;;;;;;;61.85;40.38;;;;;;;36.31;25.19;99894.16;4473531;32;33622;-77
2022/06/27 10:57:02;;;;;;;34.40;20.12;;;;;;;36.14;24.92;99886.84;4484781;32;32489;-78
2022/06/27 11:00:11;;;;;;;9.50;4.22;;;;;;;36.46;23.78;99884.63;4484929;32;34004;-78
2022/06/27 11:02:51;;;;;;;9.02;5.07;;;;;;;36.39;23.85;99887.37;4471764;32;34056;-78
2022/06/27 11:05:20;;;;;;;27.25;7.90;;;;;;;36.54;23.94;99878.69;4477577;32;34608;-78
2022/06/27 11:07:53;;;;;;;27.20;7.68;;;;;;;36.46;24.27;99873.19;4485215;32;34160;-78
2022/06/27 11:10:24;;;;;;;16.33;5.80;;;;;;;36.45;24.09;99877.25;4483382;32;32858;-78
2022/06/27 11:12:57;;;;;;;14.13;4.65;;;;;;;36.48;24.19;99880.19;4484875;32;33745;-78
2022/06/27 11:15:28;;;;;;;151.75;17.67;;;;;;;36.51;24.42;99876.59;4485520;32;34493;-78
2022/06/27 11:17:55;;;;;;;29.80;5.15;;;;;;;36.78;23.97;99871.00;4481627;32;33882;-78
2022/06/27 11:20:25;;;;;;;9.10;3.00;;;;;;;36.94;24.15;99871.69;4483841;32;33484;-78
2022/06/27 11:23:14;;;;;;;23.30;5.55;;;;;;;36.85;23.61;99863.37;4472045;32;31945;-78
2022/06/27 11:25:47;;;;;;;274.35;24.65;;;;;;;36.93;24.32;99861.47;4471254;32;34416;-78
2022/06/27 11:34:03;;;;;;;20.95;4.60;;;;;;;37.25;24.36;99859.16;4484645;32;33691;-78
2022/06/27 11:36:39;;;;;;;16.60;4.05;;;;;;;36.93;24.00;99838.56;4484737;32;34181;-78
2022/06/27 11:39:14;;;;;;;20.98;4.25;;;;;;;36.93;24.33;99839.41;4458181;32;33519;-78
2022/06/27 11:41:58;;;;;;;36.72;7.47;;;;;;;36.91;24.46;99843.84;4484440;32;33463;-78
2022/06/27 11:44:38;;;;;;;26.95;5.85;;;;;;;37.03;22.94;99845.69;4471660;32;32252;-78
2022/06/27 11:47:27;;;;;;;7.12;2.72;;;;;;;37.18;23.71;99856.13;4472540;32;33915;-78
2022/06/27 11:50:15;;;;;;;23.08;4.78;;;;;;;37.35;22.69;99847.03;4466828;32;174268;-78
2022/06/27 11:52:47;;;;;;;8.10;3.08;;;;;;;37.40;23.25;99838.12;4484340;32;34227;-78
2022/06/27 11:55:20;;;;;;;238.93;41.37;;;;;;;37.52;23.93;99835.03;4471960;32;33596;-78
2022/06/27 11:57:51;;;;;;;209.00;31.15;;;;;;;37.36;23.11;99840.09;4471028;32;32981;-78
2022/06/27 12:00:25;;;;;;;32.38;7.37;;;;;;;37.50;22.32;99848.09;4471209;32;34157;-78
2022/06/27 12:02:59;;;;;;;10.23;2.93;;;;;;;37.54;22.28;99843.25;4483739;32;31775;-78
2022/06/27 12:05:26;;;;;;;170.18;26.35;;;;;;;37.11;22.18;99838.84;4483975;32;34563;-78
2022/06/27 12:08:01;;;;;;;35.15;6.85;;;;;;;37.49;23.24;99829.25;4484164;32;35356;-80
2022/06/27 12:10:35;;;;;;;55.72;9.75;;;;;;;37.70;21.95;99829.56;4484957;32;33712;-80
2022/06/27 12:13:24;;;;;;;20.52;4.78;;;;;;;37.86;22.25;99820.78;4478544;32;33440;-80
2022/06/27 12:15:58;;;;;;;11.15;3.05;;;;;;;37.98;22.19;99811.91;4463339;32;32224;-80
2022/06/27 12:18:40;;;;;;;36.85;7.50;;;;;;;37.89;22.28;99820.00;4462184;32;35140;-77